Atwood, Kentucky
Current Conditions -  °F | °C
As of 4:52 AM on Wednesday 22 Oct 2014 (Local Time) from KCVG Reporting Station
Overcast Overcast  
Wind Chill:   Ceiling: 3700
Heat Index:   Visibility: 10mi
Dew Point:   Wind: 7mph
Humidity: 71%   Direction: 350°N
Pressure: 30.2"   Gusts: NA
Location:  38.8354°N, 84.5143°W
Report Text: KCVG 220852Z 35006KT 10SM OVC037 08/03 A3020 RMK AO2 SLP225 T00780028 53007
Loading
Personal Weather Stations






























Interactive Weather Map
Tropical Storm Tracking
New forecast layout! Learn more

10-Day Weather Forecast

Advertisements
Track Severe Weather on mobile